Latest Weather Observations for Point Wilson

IDV60801

Issued at 8:31 am EDT Saturday 31 January 2015 (issued every 30 minutes, with the page automatically refreshed every 10 minutes)

About weather observations | Map of weather stations | Latest weather observations for VIC | Other Formats
Station Details ID: 087166 Name: POINT WILSON Lat: -38.10 Lon: 144.54 Height: 18.0 m
Data from the previous 72 hours. | See also: Recent months at Point Wilson
Date/Time
EDT
Temp
°C
App
Temp
°C
Dew
Point
Rel
Hum
%
Delta-T
°C
Wind Press
QNH
hPa
Press
MSL
hPa
Rain
since 9 am
mm
Dir
 
Spd
km/h
Gust
km/h
Spd
kts
Gust
kts
31/08:30am - - - - - WSW 26 35 14 19 - - -
31/08:00am - - - - - W 26 32 14 17 - - -
31/07:30am - - - - - WSW 26 32 14 17 - - -
31/07:00am - - - - - W 26 32 14 17 - - -
31/06:30am - - - - - WSW 28 33 15 18 - - -
31/06:00am - - - - - W 26 32 14 17 - - -
31/05:30am - - - - - W 26 32 14 17 - - -
31/05:00am - - - - - W 24 28 13 15 - - -
31/04:30am - - - - - W 20 24 11 13 - - -
31/04:00am - - - - - W 20 26 11 14 - - -
31/03:30am - - - - - W 20 26 11 14 - - -
31/03:00am - - - - - W 19 24 10 13 - - -
31/02:30am - - - - - W 22 28 12 15 - - -
31/02:00am - - - - - SSW 22 26 12 14 - - -
31/01:30am - - - - - SW 22 28 12 15 - - -
31/01:00am - - - - - SW 24 30 13 16 - - -
31/12:30am - - - - - SW 22 26 12 14 - - -
31/12:00am - - - - - SW 24 28 13 15 - - -
 
Date/Time
EDT
Temp
°C
App
Temp
°C
Dew
Point
Rel
Hum
%
Delta-T
°C
Wind Press
QNH
hPa
Press
MSL
hPa
Rain
since 9 am
mm
Dir
 
Spd
km/h
Gust
km/h
Spd
kts
Gust
kts
30/11:30pm - - - - - SW 22 28 12 15 - - -
30/11:00pm - - - - - SW 24 28 13 15 - - -
30/10:30pm - - - - - SSW 22 26 12 14 - - -
30/10:00pm - - - - - SSW 19 22 10 12 - - -
30/09:30pm - - - - - SSW 19 24 10 13 - - -
30/09:00pm - - - - - S 20 26 11 14 - - -
30/08:30pm - - - - - S 26 30 14 16 - - -
30/08:00pm - - - - - S 26 32 14 17 - - -
30/07:30pm - - - - - S 24 30 13 16 - - -
30/07:00pm - - - - - S 24 30 13 16 - - -
30/06:30pm - - - - - S 26 32 14 17 - - -
30/06:00pm - - - - - S 28 32 15 17 - - -
30/05:30pm - - - - - S 30 35 16 19 - - -
30/05:00pm - - - - - S 28 33 15 18 - - -
30/04:30pm - - - - - S 26 32 14 17 - - -
30/04:00pm - - - - - S 28 32 15 17 - - -
30/03:30pm - - - - - S 26 32 14 17 - - -
30/03:00pm - - - - - S 28 35 15 19 - - -
30/02:30pm - - - - - S 28 33 15 18 - - -
30/02:00pm - - - - - S 28 35 15 19 - - -
30/01:30pm - - - - - S 28 32 15 17 - - -
30/01:00pm - - - - - S 26 35 14 19 - - -
30/12:30pm - - - - - S 22 28 12 15 - - -
30/12:00pm - - - - - SSE 24 33 13 18 - - -
30/11:30am - - - - - S 24 35 13 19 - - -
30/11:00am - - - - - S 26 30 14 16 - - -
30/10:30am - - - - - SSE 15 22 8 12 - - -
30/10:00am - - - - - SE 13 19 7 10 - - -
30/09:30am - - - - - ESE 11 17 6 9 - - -
30/09:00am - - - - - ESE 15 20 8 11 - - -
30/08:30am - - - - - E 15 19 8 10 - - -
30/08:00am - - - - - ESE 22 28 12 15 - - -
30/07:30am - - - - - E 19 24 10 13 - - -
30/07:00am - - - - - E 20 24 11 13 - - -
30/06:30am - - - - - S 15 20 8 11 - - -
30/06:00am - - - - - S 9 11 5 6 - - -
30/05:30am - - - - - ESE 11 15 6 8 - - -
30/05:00am - - - - - E 13 17 7 9 - - -
30/04:30am - - - - - E 22 26 12 14 - - -
30/04:00am - - - - - ESE 20 24 11 13 - - -
30/03:30am - - - - - S 24 30 13 16 - - -
30/03:00am - - - - - S 20 26 11 14 - - -
30/02:30am - - - - - SE 20 24 11 13 - - -
30/02:00am - - - - - ESE 20 24 11 13 - - -
30/01:30am - - - - - ESE 19 24 10 13 - - -
30/01:00am - - - - - ESE 22 26 12 14 - - -
30/12:30am - - - - - ESE 19 22 10 12 - - -
30/12:00am - - - - - ESE 22 26 12 14 - - -
 
Date/Time
EDT
Temp
°C
App
Temp
°C
Dew
Point
Rel
Hum
%
Delta-T
°C
Wind Press
QNH
hPa
Press
MSL
hPa
Rain
since 9 am
mm
Dir
 
Spd
km/h
Gust
km/h
Spd
kts
Gust
kts
29/11:30pm - - - - - ESE 22 28 12 15 - - -
29/11:00pm - - - - - SE 24 30 13 16 - - -
29/10:30pm - - - - - SE 26 30 14 16 - - -
29/10:00pm - - - - - SE 28 35 15 19 - - -
29/09:30pm - - - - - SE 30 37 16 20 - - -
29/09:00pm - - - - - SSE 32 37 17 20 - - -
29/08:30pm - - - - - SSE 33 41 18 22 - - -
29/08:00pm - - - - - SSE 32 43 17 23 - - -
29/07:30pm - - - - - SSE 37 46 20 25 - - -
29/07:00pm - - - - - SSE 37 44 20 24 - - -
29/06:30pm - - - - - SSE 41 50 22 27 - - -
29/06:00pm - - - - - SSE 39 44 21 24 - - -
29/05:30pm - - - - - SSE 39 46 21 25 - - -
29/05:00pm - - - - - SSE 37 46 20 25 - - -
29/04:30pm - - - - - SSE 37 44 20 24 - - -
29/04:00pm - - - - - S 39 50 21 27 - - -
29/03:30pm - - - - - S 41 50 22 27 - - -
29/03:00pm - - - - - S 39 46 21 25 - - -
29/02:30pm - - - - - SSE 37 46 20 25 - - -
29/02:00pm - - - - - S 37 46 20 25 - - -
29/01:30pm - - - - - SSE 32 43 17 23 - - -
29/01:00pm - - - - - SSE 30 39 16 21 - - -
29/12:30pm - - - - - SSE 32 39 17 21 - - -
29/12:00pm - - - - - SSE 26 32 14 17 - - -
29/11:30am - - - - - SE 30 33 16 18 - - -
29/11:00am - - - - - SE 30 41 16 22 - - -
29/10:30am - - - - - SE 24 30 13 16 - - -
29/10:00am - - - - - SSE 17 28 9 15 - - -
29/09:30am - - - - - ESE 28 33 15 18 - - -
29/09:00am - - - - - E 30 35 16 19 - - -
29/08:30am - - - - - ESE 28 33 15 18 - - -
29/08:00am - - - - - ESE 32 37 17 20 - - -
29/07:30am - - - - - ESE 24 28 13 15 - - -
29/07:00am - - - - - ESE 20 24 11 13 - - -
29/06:30am - - - - - ESE 24 30 13 16 - - -
29/06:00am - - - - - E 26 30 14 16 - - -
29/05:30am - - - - - ESE 28 35 15 19 - - -
29/05:00am - - - - - ESE 28 35 15 19 - - -
29/04:30am - - - - - ESE 28 32 15 17 - - -
29/04:00am - - - - - ESE 28 33 15 18 - - -
29/03:30am - - - - - ESE 30 33 16 18 - - -
29/03:00am - - - - - ESE 30 35 16 19 - - -
29/02:30am - - - - - ESE 30 35 16 19 - - -
29/02:00am - - - - - ESE 28 32 15 17 - - -
29/01:30am - - - - - ESE 28 33 15 18 - - -
29/01:00am - - - - - ESE 32 35 17 19 - - -
29/12:30am - - - - - ESE 33 41 18 22 - - -
29/12:00am - - - - - ESE 32 37 17 20 - - -
 
Date/Time
EDT
Temp
°C
App
Temp
°C
Dew
Point
Rel
Hum
%
Delta-T
°C
Wind Press
QNH
hPa
Press
MSL
hPa
Rain
since 9 am
mm
Dir
 
Spd
km/h
Gust
km/h
Spd
kts
Gust
kts
28/11:30pm - - - - - ESE 33 39 18 21 - - -
28/11:00pm - - - - - SE 35 39 19 21 - - -
28/10:30pm - - - - - SSE 33 39 18 21 - - -
28/10:00pm - - - - - SSE 32 37 17 20 - - -
28/09:30pm - - - - - SSE 32 39 17 21 - - -
28/09:00pm - - - - - SSE 32 35 17 19 - - -
28/08:30pm - - - - - SSE 35 43 19 23 - - -
28/08:00pm - - - - - SE 39 46 21 25 - - -
28/07:30pm - - - - - SSE 39 44 21 24 - - -
28/07:00pm - - - - - SE 44 50 24 27 - - -
28/06:30pm - - - - - SSE 44 54 24 29 - - -
28/06:00pm - - - - - SE 48 57 26 31 - - -
28/05:30pm - - - - - SE 48 57 26 31 - - -
28/05:00pm - - - - - SSE 48 59 26 32 - - -
28/04:30pm - - - - - SSE 46 57 25 31 - - -
28/04:00pm - - - - - SSE 46 57 25 31 - - -
28/03:30pm - - - - - SSE 41 54 22 29 - - -
28/03:00pm - - - - - SSE 44 52 24 28 - - -
28/02:30pm - - - - - SSE 41 48 22 26 - - -
28/02:00pm - - - - - SSE 39 46 21 25 - - -
28/01:30pm - - - - - SSE 33 41 18 22 - - -
28/01:00pm - - - - - SSE 30 43 16 23 - - -
28/12:30pm - - - - - SE 28 35 15 19 - - -
28/12:00pm - - - - - SE 32 41 17 22 - - -
28/11:30am - - - - - SE 32 39 17 21 - - -
28/11:00am - - - - - SE 28 35 15 19 - - -
28/10:30am - - - - - SE 24 32 13 17 - - -
28/10:00am - - - - - ESE 28 33 15 18 - - -
28/09:30am - - - - - ESE 28 35 15 19 - - -
28/09:00am - - - - - ESE 35 39 19 21 - - -

Other Formats:

Comma delimited format used in spreadsheet applications
http://www.bom.gov.au/fwo/IDV60801/IDV60801.94847.axf

JavaScript Object Notation format (JSON) in row-major order
http://www.bom.gov.au/fwo/IDV60801/IDV60801.94847.json